createdAt,value
2023-01-02T00:00:17.465Z,97.79
2023-01-02T00:01:13.394Z,97.28
2023-01-02T00:02:13.421Z,97.28
2023-01-02T00:03:13.496Z,97.28
2023-01-02T00:04:13.361Z,97.07
2023-01-02T00:05:13.353Z,96.87
2023-01-02T00:06:13.358Z,96.97
2023-01-02T00:07:13.347Z,97.17
2023-01-02T00:08:13.805Z,96.87
2023-01-02T00:09:13.330Z,96.87
2023-01-02T00:10:13.327Z,96.41
2023-01-02T00:11:13.325Z,96.51
2023-01-02T00:12:13.296Z,96.62
2023-01-02T00:13:13.280Z,96.92
2023-01-02T00:14:13.275Z,97.17
2023-01-02T00:15:13.283Z,97.07
2023-01-02T00:16:13.332Z,97.07
2023-01-02T00:17:13.247Z,96.87
2023-01-02T00:18:13.235Z,96.97
2023-01-02T00:19:13.227Z,97.07
2023-01-02T00:20:13.230Z,96.97
2023-01-02T00:21:13.236Z,97.07
2023-01-02T00:22:13.216Z,97.17
2023-01-02T00:23:13.204Z,97.28
2023-01-02T00:24:13.185Z,97.07
2023-01-02T00:25:13.182Z,97.17
2023-01-02T00:26:13.161Z,96.97
2023-01-02T00:27:13.179Z,97.28
2023-01-02T00:28:13.171Z,97.07
2023-01-02T00:29:13.145Z,97.17
2023-01-02T00:30:13.148Z,97.28
2023-01-02T00:31:13.437Z,97.07
2023-01-02T00:32:13.118Z,97.17
2023-01-02T00:33:13.119Z,97.38
2023-01-02T00:34:13.110Z,97.38
2023-01-02T00:35:13.125Z,97.17
2023-01-02T00:36:13.077Z,96.97
2023-01-02T00:37:13.079Z,97.07
2023-01-02T00:38:13.057Z,97.07
2023-01-02T00:39:14.168Z,97.07
2023-01-02T00:40:13.065Z,96.97
2023-01-02T00:41:13.042Z,96.77
2023-01-02T00:42:13.032Z,96.87
2023-01-02T00:43:13.031Z,96.87
2023-01-02T00:44:13.019Z,96.87
2023-01-02T00:45:13.017Z,96.87
2023-01-02T00:46:13.100Z,97.07
2023-01-02T00:47:12.996Z,96.87
2023-01-02T00:48:13.011Z,96.56
2023-01-02T00:49:13.365Z,96.56
2023-01-02T00:50:12.982Z,96.62
2023-01-02T00:51:12.962Z,96.66
2023-01-02T00:52:12.948Z,96.62
2023-01-02T00:53:12.941Z,96.77
2023-01-02T00:54:12.949Z,96.72
2023-01-02T00:55:12.941Z,96.97
2023-01-02T00:56:12.928Z,96.66
2023-01-02T00:57:13.473Z,96.56
2023-01-02T00:58:12.893Z,97.07
2023-01-02T00:59:13.404Z,96.97
2023-01-02T01:00:15.855Z,96.77
2023-01-02T01:01:13.136Z,96.77
2023-01-02T01:02:12.947Z,96.45
2023-01-02T01:03:12.901Z,96.56
2023-01-02T01:04:13.130Z,96.66
2023-01-02T01:05:12.839Z,96.56
2023-01-02T01:06:12.837Z,96.25
2023-01-02T01:07:12.822Z,96.25
2023-01-02T01:08:12.815Z,95.90
2023-01-02T01:09:12.810Z,95.79
2023-01-02T01:10:12.813Z,95.79
2023-01-02T01:11:12.804Z,96.31
2023-01-02T01:12:12.793Z,96.20
2023-01-02T01:13:12.775Z,96.00
2023-01-02T01:14:12.782Z,95.59
2023-01-02T01:15:13.050Z,95.69
2023-01-02T01:16:12.782Z,95.74
2023-01-02T01:17:12.733Z,95.90
2023-01-02T01:18:12.747Z,96.00
2023-01-02T01:19:12.860Z,96.35
2023-01-02T01:20:13.522Z,96.25
2023-01-02T01:21:12.710Z,96.25
2023-01-02T01:22:12.733Z,96.45
2023-01-02T01:23:12.687Z,96.04
2023-01-02T01:24:12.678Z,95.94
2023-01-02T01:25:12.678Z,96.04
2023-01-02T01:26:12.690Z,96.04
2023-01-02T01:27:13.025Z,95.53
2023-01-02T01:28:12.674Z,95.39
2023-01-02T01:29:12.635Z,95.07
2023-01-02T01:30:12.643Z,95.49
2023-01-02T01:31:13.133Z,95.18
2023-01-02T01:32:13.425Z,95.07
2023-01-02T01:33:12.609Z,95.28
2023-01-02T01:34:12.610Z,94.87
2023-01-02T01:35:12.587Z,94.98
2023-01-02T01:36:12.579Z,94.15
2023-01-02T01:37:12.588Z,94.46
2023-01-02T01:38:13.019Z,94.26
2023-01-02T01:39:12.543Z,94.15
2023-01-02T01:40:12.569Z,93.85
2023-01-02T01:41:12.531Z,94.26
2023-01-02T01:42:13.377Z,94.15
2023-01-02T01:43:12.513Z,93.44
2023-01-02T01:44:12.516Z,93.44
2023-01-02T01:45:12.498Z,93.29
2023-01-02T01:46:12.580Z,93.02
2023-01-02T01:47:12.968Z,92.78
2023-01-02T01:48:12.486Z,92.47
2023-01-02T01:49:12.831Z,92.47
2023-01-02T01:50:12.473Z,92.16
2023-01-02T01:51:12.442Z,92.36
2023-01-02T01:52:12.449Z,91.96
2023-01-02T01:53:12.431Z,92.47
2023-01-02T01:54:13.270Z,92.68
2023-01-02T01:55:12.423Z,92.57
2023-01-02T01:56:12.415Z,92.36
2023-01-02T01:57:12.890Z,92.57
2023-01-02T01:58:12.391Z,92.88
2023-01-02T01:59:12.379Z,92.98
2023-01-02T02:00:12.407Z,92.82
2023-01-02T02:01:12.517Z,93.02
2023-01-02T02:02:12.561Z,93.13
2023-01-02T02:03:12.448Z,93.02
2023-01-02T02:04:12.347Z,93.13
2023-01-02T02:05:12.364Z,93.13
2023-01-02T02:06:12.329Z,93.23
2023-01-02T02:07:12.937Z,93.23
2023-01-02T02:08:12.310Z,93.23
2023-01-02T02:09:12.714Z,93.33
2023-01-02T02:10:12.304Z,93.23
2023-01-02T02:11:12.296Z,93.23
2023-01-02T02:12:12.287Z,93.33
2023-01-02T02:13:12.280Z,93.13
2023-01-02T02:14:12.277Z,93.23
2023-01-02T02:15:12.278Z,93.33
2023-01-02T02:16:12.610Z,93.02
2023-01-02T02:17:12.238Z,92.93
2023-01-02T02:18:12.275Z,93.02
2023-01-02T02:19:12.418Z,93.44
2023-01-02T02:20:12.229Z,93.44
2023-01-02T02:21:12.972Z,93.02
2023-01-02T02:22:12.196Z,93.33
2023-01-02T02:23:12.179Z,93.23
2023-01-02T02:24:12.173Z,93.13
2023-01-02T02:25:12.165Z,93.13
2023-01-02T02:26:12.159Z,92.93
2023-01-02T02:27:12.163Z,93.02
2023-01-02T02:28:12.145Z,93.02
2023-01-02T02:29:12.133Z,92.93
2023-01-02T02:30:12.140Z,93.02
2023-01-02T02:31:12.590Z,93.13
2023-01-02T02:32:12.111Z,92.93
2023-01-02T02:33:12.095Z,92.93
2023-01-02T02:34:12.123Z,92.88
2023-01-02T02:35:12.080Z,92.82
2023-01-02T02:36:12.087Z,91.86
2023-01-02T02:37:12.070Z,92.36
2023-01-02T02:38:12.092Z,92.47
2023-01-02T02:39:12.053Z,92.57
2023-01-02T02:40:12.044Z,92.68
2023-01-02T02:41:12.040Z,92.36
2023-01-02T02:42:12.027Z,92.27
2023-01-02T02:43:12.009Z,91.75
2023-01-02T02:44:12.025Z,91.65
2023-01-02T02:45:11.995Z,91.96
2023-01-02T02:46:12.008Z,91.96
2023-01-02T02:47:11.980Z,91.65
2023-01-02T02:48:12.271Z,91.44
2023-01-02T02:49:11.968Z,91.65
2023-01-02T02:50:11.961Z,90.73
2023-01-02T02:51:11.960Z,91.20
2023-01-02T02:52:11.949Z,90.28
2023-01-02T02:53:11.924Z,89.36
2023-01-02T02:54:11.933Z,90.17
2023-01-02T02:55:11.933Z,89.76
2023-01-02T02:56:11.909Z,89.97
2023-01-02T02:57:11.895Z,89.87
2023-01-02T02:58:11.889Z,89.00
2023-01-02T02:59:11.886Z,88.80
2023-01-02T03:00:11.875Z,89.11
2023-01-02T03:01:11.990Z,89.11
2023-01-02T03:02:12.090Z,88.18
2023-01-02T03:03:11.863Z,88.39
2023-01-02T03:04:11.854Z,87.02
2023-01-02T03:05:11.840Z,87.43
2023-01-02T03:06:11.826Z,87.73
2023-01-02T03:07:11.817Z,87.84
2023-01-02T03:08:11.798Z,87.32
2023-01-02T03:09:11.807Z,87.12
2023-01-02T03:10:11.781Z,86.81
2023-01-02T03:11:11.773Z,86.61
2023-01-02T03:12:11.765Z,86.30
2023-01-02T03:13:12.474Z,86.46
2023-01-02T03:14:11.747Z,85.75
2023-01-02T03:15:11.737Z,85.64
2023-01-02T03:16:12.016Z,85.34
2023-01-02T03:17:11.716Z,85.44
2023-01-02T03:18:11.720Z,86.05
2023-01-02T03:19:11.697Z,85.85
2023-01-02T03:20:11.699Z,85.03
2023-01-02T03:21:11.970Z,85.14
2023-01-02T03:22:11.675Z,84.48
2023-01-02T03:23:11.679Z,84.99
2023-01-02T03:24:11.659Z,83.76
2023-01-02T03:25:11.707Z,83.97
2023-01-02T03:26:12.241Z,83.56
2023-01-02T03:27:11.633Z,84.48
2023-01-02T03:28:11.621Z,83.25
2023-01-02T03:29:11.606Z,83.46
2023-01-02T03:30:11.893Z,83.46
2023-01-02T03:31:11.911Z,83.05
2023-01-02T03:32:11.579Z,82.75
2023-01-02T03:33:11.575Z,82.95
2023-01-02T03:34:11.562Z,82.84
2023-01-02T03:35:11.578Z,82.81
2023-01-02T03:36:12.145Z,82.09
2023-01-02T03:37:11.529Z,81.38
2023-01-02T03:38:11.532Z,81.27
2023-01-02T03:39:11.511Z,81.34
2023-01-02T03:40:11.509Z,80.62
2023-01-02T03:41:11.504Z,80.83
2023-01-02T03:42:11.492Z,80.32
2023-01-02T03:43:11.468Z,80.62
2023-01-02T03:44:11.493Z,80.73
2023-01-02T03:45:11.461Z,79.77
2023-01-02T03:46:11.525Z,79.97
2023-01-02T03:47:11.437Z,78.95
2023-01-02T03:48:11.425Z,79.25
2023-01-02T03:49:11.413Z,78.75
2023-01-02T03:50:11.413Z,78.75
2023-01-02T03:51:11.849Z,78.54
2023-01-02T03:52:11.381Z,79.16
2023-01-02T03:53:11.395Z,78.85
2023-01-02T03:54:11.373Z,78.30
2023-01-02T03:55:11.365Z,78.85
2023-01-02T03:56:11.348Z,78.34
2023-01-02T03:57:11.332Z,78.13
2023-01-02T03:58:11.327Z,77.79
2023-01-02T03:59:11.808Z,77.79
2023-01-02T04:00:11.302Z,78.20
2023-01-02T04:01:11.470Z,77.79
2023-01-02T04:02:11.428Z,77.79
2023-01-02T04:03:11.319Z,77.28
2023-01-02T04:04:11.284Z,77.69
2023-01-02T04:05:12.039Z,77.59
2023-01-02T04:06:11.257Z,77.38
2023-01-02T04:07:11.230Z,77.69
2023-01-02T04:08:11.757Z,77.08
2023-01-02T04:09:11.225Z,77.59
2023-01-02T04:10:11.223Z,77.59
2023-01-02T04:11:11.709Z,77.48
2023-01-02T04:12:11.187Z,76.87
2023-01-02T04:13:11.168Z,76.97
2023-01-02T04:14:11.160Z,77.08
2023-01-02T04:15:11.149Z,77.18
2023-01-02T04:16:11.193Z,76.26
2023-01-02T04:17:11.131Z,76.56
2023-01-02T04:18:11.124Z,76.87
2023-01-02T04:19:11.107Z,76.46
2023-01-02T04:20:11.112Z,76.77
2023-01-02T04:21:11.086Z,76.67
2023-01-02T04:22:11.087Z,76.87
2023-01-02T04:23:11.077Z,76.77
2023-01-02T04:24:11.065Z,78.61
2023-01-02T04:25:11.062Z,77.48
2023-01-02T04:26:11.055Z,76.97
2023-01-02T04:27:11.576Z,76.77
2023-01-02T04:28:11.020Z,76.97
2023-01-02T04:29:11.455Z,77.59
2023-01-02T04:30:11.483Z,77.48
2023-01-02T04:31:11.052Z,78.00
2023-01-02T04:32:10.980Z,77.18
2023-01-02T04:33:10.970Z,78.00
2023-01-02T04:34:11.224Z,76.87
2023-01-02T04:35:11.563Z,77.59
2023-01-02T04:36:10.953Z,77.89
2023-01-02T04:37:10.919Z,77.08
2023-01-02T04:38:10.941Z,77.08
2023-01-02T04:39:10.910Z,77.01
2023-01-02T04:40:10.898Z,77.38
2023-01-02T04:41:10.900Z,77.01
2023-01-02T04:42:10.883Z,77.22
2023-01-02T04:43:10.879Z,77.18
2023-01-02T04:44:10.871Z,77.01
2023-01-02T04:45:10.846Z,77.42
2023-01-02T04:46:10.875Z,77.59
2023-01-02T04:47:10.825Z,77.93
2023-01-02T04:48:10.818Z,77.22
2023-01-02T04:49:11.251Z,76.16
2023-01-02T04:50:10.807Z,75.95
2023-01-02T04:51:10.782Z,76.56
2023-01-02T04:52:10.794Z,76.46
2023-01-02T04:53:11.580Z,76.06
2023-01-02T04:54:10.770Z,76.87
2023-01-02T04:55:10.783Z,76.36
2023-01-02T04:56:10.773Z,76.77
2023-01-02T04:57:10.735Z,76.87
2023-01-02T04:58:10.992Z,76.67
2023-01-02T04:59:10.729Z,76.97
2023-01-02T05:00:10.704Z,76.56
2023-01-02T05:01:10.779Z,76.77
2023-01-02T05:02:10.804Z,76.77
2023-01-02T05:03:10.713Z,77.79
2023-01-02T05:04:10.659Z,77.18
2023-01-02T05:05:10.662Z,77.62
2023-01-02T05:06:10.644Z,77.01
2023-01-02T05:07:10.619Z,76.81
2023-01-02T05:08:15.898Z,76.56
2023-01-02T05:09:10.610Z,76.60
2023-01-02T05:10:10.636Z,76.29
2023-01-02T05:11:10.580Z,76.26
2023-01-02T05:12:10.596Z,76.67
2023-01-02T05:13:10.610Z,77.18
2023-01-02T05:14:10.560Z,76.56
2023-01-02T05:15:10.542Z,76.81
2023-01-02T05:16:10.596Z,76.77
2023-01-02T05:17:10.551Z,77.01
2023-01-02T05:18:10.519Z,76.81
2023-01-02T05:19:10.533Z,76.50
2023-01-02T05:20:10.511Z,76.70
2023-01-02T05:21:10.492Z,77.01
2023-01-02T05:22:10.487Z,77.01
2023-01-02T05:23:10.489Z,76.60
2023-01-02T05:24:10.499Z,76.09
2023-01-02T05:25:10.472Z,77.11
2023-01-02T05:26:10.445Z,76.90
2023-01-02T05:27:10.454Z,77.01
2023-01-02T05:28:10.470Z,77.22
2023-01-02T05:29:10.428Z,77.42
2023-01-02T05:30:10.423Z,76.60
2023-01-02T05:31:10.461Z,76.70
2023-01-02T05:32:10.389Z,77.31
2023-01-02T05:33:10.396Z,76.81
2023-01-02T05:34:10.798Z,76.60
2023-01-02T05:35:10.403Z,76.40
2023-01-02T05:36:10.374Z,75.78
2023-01-02T05:37:10.357Z,76.09
2023-01-02T05:38:10.350Z,75.68
2023-01-02T05:39:10.349Z,75.89
2023-01-02T05:40:10.321Z,76.40
2023-01-02T05:41:10.333Z,75.68
2023-01-02T05:42:10.302Z,75.37
2023-01-02T05:43:10.301Z,75.75
2023-01-02T05:44:10.342Z,75.75
2023-01-02T05:45:10.304Z,75.68
2023-01-02T05:46:10.312Z,75.13
2023-01-02T05:47:14.845Z,75.34
2023-01-02T05:48:10.278Z,75.75
2023-01-02T05:49:10.233Z,75.44
2023-01-02T05:50:10.231Z,75.44
2023-01-02T05:51:10.229Z,75.54
2023-01-02T05:52:10.218Z,75.78
2023-01-02T05:53:10.209Z,75.78
2023-01-02T05:54:10.197Z,75.17
2023-01-02T05:55:10.194Z,75.89
2023-01-02T05:56:10.191Z,75.17
2023-01-02T05:57:10.157Z,75.48
2023-01-02T05:58:10.149Z,75.68
2023-01-02T05:59:10.144Z,75.37
2023-01-02T06:00:10.142Z,75.13
2023-01-02T06:01:10.116Z,75.17
2023-01-02T06:02:10.294Z,74.87
2023-01-02T06:03:10.202Z,75.24
2023-01-02T06:04:13.515Z,75.13
2023-01-02T06:05:10.098Z,75.58
2023-01-02T06:06:10.070Z,75.48
2023-01-02T06:07:10.056Z,76.19
2023-01-02T06:08:10.069Z,75.58
2023-01-02T06:09:10.034Z,75.27
2023-01-02T06:10:10.030Z,75.37
2023-01-02T06:11:10.079Z,75.37
2023-01-02T06:12:10.028Z,75.68
2023-01-02T06:13:10.057Z,75.48
2023-01-02T06:14:09.986Z,75.78
2023-01-02T06:15:09.984Z,75.68
2023-01-02T06:16:10.079Z,75.99
2023-01-02T06:17:09.962Z,75.78
2023-01-02T06:18:09.939Z,75.58
2023-01-02T06:19:10.240Z,75.58
2023-01-02T06:20:09.928Z,75.68
2023-01-02T06:21:09.928Z,75.27
2023-01-02T06:22:09.916Z,75.27
2023-01-02T06:23:09.892Z,75.68
2023-01-02T06:24:09.941Z,75.89
2023-01-02T06:25:09.879Z,75.07
2023-01-02T06:26:09.872Z,75.68
2023-01-02T06:27:09.868Z,75.62
2023-01-02T06:28:09.848Z,75.51
2023-01-02T06:29:09.829Z,75.92
2023-01-02T06:30:09.854Z,75.82
2023-01-02T06:31:09.904Z,75.92
2023-01-02T06:32:09.850Z,76.12
2023-01-02T06:33:09.801Z,76.43
2023-01-02T06:34:09.791Z,76.33
2023-01-02T06:35:09.773Z,76.47
2023-01-02T06:36:09.779Z,76.37
2023-01-02T06:37:10.537Z,76.88
2023-01-02T06:38:09.743Z,76.98
2023-01-02T06:39:09.749Z,76.78
2023-01-02T06:40:09.732Z,76.98
2023-01-02T06:41:09.719Z,76.98
2023-01-02T06:42:09.712Z,77.53
2023-01-02T06:43:09.687Z,77.63
2023-01-02T06:44:10.301Z,77.53
2023-01-02T06:45:09.738Z,77.22
2023-01-02T06:46:09.777Z,77.32
2023-01-02T06:47:09.672Z,77.63
2023-01-02T06:48:09.648Z,77.73
2023-01-02T06:49:09.635Z,78.14
2023-01-02T06:50:09.626Z,77.63
2023-01-02T06:51:09.612Z,77.94
2023-01-02T06:52:09.642Z,77.63
2023-01-02T06:53:09.562Z,77.83
2023-01-02T06:54:09.543Z,77.73
2023-01-02T06:55:09.556Z,78.04
2023-01-02T06:56:09.502Z,77.53
2023-01-02T06:57:09.530Z,78.04
2023-01-02T06:58:14.605Z,78.04
2023-01-02T06:59:09.529Z,78.14
2023-01-02T07:00:09.491Z,78.04
2023-01-02T07:01:09.491Z,77.87
2023-01-02T07:02:09.564Z,78.24
2023-01-02T07:03:09.513Z,78.08
2023-01-02T07:04:09.421Z,78.17
2023-01-02T07:05:09.427Z,78.17
2023-01-02T07:06:09.420Z,78.28
2023-01-02T07:07:09.417Z,78.17
2023-01-02T07:08:09.426Z,78.69
2023-01-02T07:09:09.390Z,78.38
2023-01-02T07:10:09.380Z,78.49
2023-01-02T07:11:09.377Z,78.49
2023-01-02T07:12:09.406Z,78.38
2023-01-02T07:13:09.348Z,78.28
2023-01-02T07:14:09.581Z,78.17
2023-01-02T07:15:09.354Z,78.17
2023-01-02T07:16:09.377Z,78.17
2023-01-02T07:17:09.312Z,78.08
2023-01-02T07:18:09.296Z,78.17
2023-01-02T07:19:09.545Z,78.08
2023-01-02T07:20:09.282Z,77.67
2023-01-02T07:21:09.278Z,77.67
2023-01-02T07:22:09.255Z,77.32
2023-01-02T07:23:09.258Z,77.63
2023-01-02T07:24:09.253Z,77.42
2023-01-02T07:25:09.256Z,77.63
2023-01-02T07:26:10.247Z,77.42
2023-01-02T07:27:09.217Z,77.42
2023-01-02T07:28:09.209Z,77.42
2023-01-02T07:29:09.240Z,77.32
2023-01-02T07:30:09.173Z,77.42
2023-01-02T07:31:09.199Z,77.53
2023-01-02T07:32:09.247Z,77.46
2023-01-02T07:33:09.184Z,77.32
2023-01-02T07:34:09.986Z,77.42
2023-01-02T07:35:09.140Z,77.32
2023-01-02T07:36:09.147Z,76.91
2023-01-02T07:37:09.120Z,77.01
2023-01-02T07:38:09.105Z,76.91
2023-01-02T07:39:09.117Z,76.91
2023-01-02T07:40:09.091Z,76.61
2023-01-02T07:41:09.084Z,76.91
2023-01-02T07:42:09.073Z,77.01
2023-01-02T07:43:09.058Z,76.09
2023-01-02T07:44:09.048Z,76.16
2023-01-02T07:45:09.358Z,76.37
2023-01-02T07:46:09.122Z,76.06
2023-01-02T07:47:09.021Z,76.37
2023-01-02T07:48:09.043Z,76.26
2023-01-02T07:49:09.015Z,76.26
2023-01-02T07:50:09.750Z,76.16
2023-01-02T07:51:09.025Z,75.85
2023-01-02T07:52:08.990Z,76.06
2023-01-02T07:53:08.962Z,76.16
2023-01-02T07:54:08.989Z,76.37
2023-01-02T07:55:08.975Z,76.06
2023-01-02T07:56:08.932Z,75.96
2023-01-02T07:57:08.947Z,76.06
2023-01-02T07:58:09.320Z,75.96
2023-01-02T07:59:08.913Z,75.85
2023-01-02T08:00:08.924Z,75.85
2023-01-02T08:01:08.950Z,76.06
2023-01-02T08:02:09.005Z,75.85
2023-01-02T08:03:08.868Z,76.06
2023-01-02T08:04:08.896Z,75.65
2023-01-02T08:05:09.662Z,75.65
2023-01-02T08:06:08.842Z,75.75
2023-01-02T08:07:08.824Z,75.85
2023-01-02T08:08:08.823Z,75.55
2023-01-02T08:09:08.813Z,75.85
2023-01-02T08:10:08.802Z,75.85
2023-01-02T08:11:08.865Z,75.85
2023-01-02T08:12:08.797Z,75.85
2023-01-02T08:13:08.774Z,75.62
2023-01-02T08:14:08.760Z,76.03
2023-01-02T08:15:08.753Z,75.85
2023-01-02T08:16:08.758Z,75.96
2023-01-02T08:17:08.793Z,76.37
2023-01-02T08:18:08.717Z,76.57
2023-01-02T08:19:08.734Z,76.47
2023-01-02T08:20:08.732Z,76.57
2023-01-02T08:21:08.710Z,76.47
2023-01-02T08:22:08.687Z,76.47
2023-01-02T08:23:08.693Z,76.06
2023-01-02T08:24:08.651Z,76.47
2023-01-02T08:25:08.637Z,76.26
2023-01-02T08:26:08.634Z,75.85
2023-01-02T08:27:08.626Z,75.85
2023-01-02T08:28:08.615Z,75.85
2023-01-02T08:29:08.619Z,76.12
2023-01-02T08:30:08.584Z,76.16
2023-01-02T08:31:08.625Z,76.43
2023-01-02T08:32:08.584Z,76.33
2023-01-02T08:33:08.563Z,76.12
2023-01-02T08:34:08.559Z,75.62
2023-01-02T08:35:09.303Z,75.21
2023-01-02T08:36:08.545Z,75.10
2023-01-02T08:37:08.528Z,75.92
2023-01-02T08:38:08.804Z,76.33
2023-01-02T08:39:08.497Z,75.31
2023-01-02T08:40:08.488Z,76.03
2023-01-02T08:41:08.477Z,75.37
2023-01-02T08:42:08.485Z,76.29
2023-01-02T08:43:08.477Z,75.68
2023-01-02T08:44:08.451Z,76.29
2023-01-02T08:45:08.439Z,76.29
2023-01-02T08:46:08.463Z,75.89
2023-01-02T08:47:08.424Z,75.89
2023-01-02T08:48:19.631Z,76.09
2023-01-02T08:49:08.409Z,76.70
2023-01-02T08:50:08.377Z,75.58
2023-01-02T08:51:08.415Z,75.68
2023-01-02T08:52:08.356Z,76.19
2023-01-02T08:53:12.671Z,76.29
2023-01-02T08:54:09.208Z,76.09
2023-01-02T08:55:08.324Z,75.78
2023-01-02T08:56:08.317Z,75.99
2023-01-02T08:57:08.315Z,75.89
2023-01-02T08:58:08.297Z,75.48
2023-01-02T08:59:08.296Z,74.87
2023-01-02T09:00:08.287Z,75.07
2023-01-02T09:01:08.303Z,74.66
2023-01-02T09:02:08.391Z,75.68
2023-01-02T09:03:08.279Z,74.76
2023-01-02T09:04:12.528Z,74.76
2023-01-02T09:05:08.482Z,74.56
2023-01-02T09:06:08.210Z,73.64
2023-01-02T09:07:08.214Z,74.76
2023-01-02T09:08:08.199Z,73.71
2023-01-02T09:09:12.172Z,72.79
2023-01-02T09:10:08.705Z,73.71
2023-01-02T09:11:08.173Z,73.81
2023-01-02T09:12:08.511Z,73.40
2023-01-02T09:13:08.134Z,74.01
2023-01-02T09:14:08.113Z,73.40
2023-01-02T09:15:08.119Z,72.99
2023-01-02T09:16:08.189Z,73.60
2023-01-02T09:17:08.145Z,73.10
2023-01-02T09:18:08.082Z,74.01
2023-01-02T09:19:08.100Z,73.10
2023-01-02T09:20:08.063Z,73.40
2023-01-02T09:21:08.747Z,73.50
2023-01-02T09:22:08.031Z,73.19
2023-01-02T09:23:08.040Z,73.40
2023-01-02T09:24:08.034Z,72.69
2023-01-02T09:25:08.014Z,72.58
2023-01-02T09:26:07.995Z,71.97
2023-01-02T09:27:07.983Z,72.58
2023-01-02T09:28:07.984Z,72.75
2023-01-02T09:29:08.033Z,72.28
2023-01-02T09:30:07.952Z,72.04
2023-01-02T09:31:11.976Z,72.14
2023-01-02T09:32:07.925Z,72.04
2023-01-02T09:33:07.951Z,72.24
2023-01-02T09:34:07.914Z,72.55
2023-01-02T09:35:07.894Z,71.53
2023-01-02T09:36:08.000Z,72.24
2023-01-02T09:37:07.873Z,71.53
2023-01-02T09:38:07.899Z,71.43
2023-01-02T09:39:07.864Z,71.63
2023-01-02T09:40:07.864Z,71.53
2023-01-02T09:41:07.833Z,72.24
2023-01-02T09:42:08.138Z,71.70
2023-01-02T09:43:07.818Z,71.73
2023-01-02T09:44:08.875Z,71.53
2023-01-02T09:45:09.102Z,71.60
2023-01-02T09:46:07.828Z,71.80
2023-01-02T09:47:07.773Z,71.70
2023-01-02T09:48:07.769Z,71.39
2023-01-02T09:49:07.755Z,70.68
2023-01-02T09:50:08.592Z,70.78
2023-01-02T09:51:08.102Z,70.57
2023-01-02T09:52:07.751Z,70.17
2023-01-02T09:53:07.709Z,71.19
2023-01-02T09:54:08.478Z,70.48
2023-01-02T09:55:07.705Z,70.89
2023-01-02T09:56:07.687Z,70.57
2023-01-02T09:57:08.168Z,70.68
2023-01-02T09:58:07.661Z,70.78
2023-01-02T09:59:07.646Z,70.68
2023-01-02T10:00:07.727Z,69.86
2023-01-02T10:01:07.617Z,70.14
2023-01-02T10:02:08.019Z,70.34
2023-01-02T10:03:08.795Z,69.66
2023-01-02T10:04:07.657Z,70.34
2023-01-02T10:05:07.617Z,70.04
2023-01-02T10:06:07.594Z,70.07
2023-01-02T10:07:07.582Z,70.34
2023-01-02T10:08:08.008Z,69.63
2023-01-02T10:09:07.648Z,69.53
2023-01-02T10:10:07.526Z,69.73
2023-01-02T10:11:07.509Z,69.76
2023-01-02T10:12:07.515Z,70.68
2023-01-02T10:13:07.495Z,69.76
2023-01-02T10:14:18.631Z,70.48
2023-01-02T10:15:07.480Z,70.57
2023-01-02T10:16:07.513Z,70.98
2023-01-02T10:17:07.460Z,71.29
2023-01-02T10:18:07.467Z,71.50
2023-01-02T10:19:07.587Z,70.98
2023-01-02T10:20:07.459Z,70.68
2023-01-02T10:21:07.477Z,70.37
2023-01-02T10:22:07.500Z,70.48
2023-01-02T10:23:07.383Z,70.78
2023-01-02T10:24:07.411Z,69.66
2023-01-02T10:25:07.375Z,70.27
2023-01-02T10:26:07.362Z,70.37
2023-01-02T10:27:07.349Z,70.27
2023-01-02T10:28:07.340Z,69.86
2023-01-02T10:29:07.347Z,70.27
2023-01-02T10:30:07.359Z,69.73
2023-01-02T10:31:07.855Z,69.86
2023-01-02T10:32:07.782Z,69.53
2023-01-02T10:33:07.308Z,68.61
2023-01-02T10:34:07.277Z,69.22
2023-01-02T10:35:07.294Z,69.32
2023-01-02T10:36:07.306Z,69.12
2023-01-02T10:37:08.174Z,69.02
2023-01-02T10:38:07.243Z,69.22
2023-01-02T10:39:07.243Z,68.20
2023-01-02T10:40:07.207Z,67.90
2023-01-02T10:41:07.219Z,68.20
2023-01-02T10:42:07.196Z,68.51
2023-01-02T10:43:07.199Z,68.40
2023-01-02T10:44:07.174Z,68.71
2023-01-02T10:45:07.166Z,67.69
2023-01-02T10:46:07.256Z,68.27
2023-01-02T10:47:07.145Z,67.86
2023-01-02T10:48:07.142Z,67.86
2023-01-02T10:49:07.162Z,67.96
2023-01-02T10:50:07.111Z,68.17
2023-01-02T10:51:07.171Z,67.05
2023-01-02T10:52:07.085Z,66.94
2023-01-02T10:53:07.072Z,67.52
2023-01-02T10:54:07.413Z,66.61
2023-01-02T10:55:07.078Z,66.61
2023-01-02T10:56:07.096Z,67.12
2023-01-02T10:57:07.025Z,66.20
2023-01-02T10:58:07.024Z,66.61
2023-01-02T10:59:07.070Z,66.61
2023-01-02T11:00:07.016Z,66.61
2023-01-02T11:01:07.076Z,66.41
2023-01-02T11:02:07.042Z,65.59
2023-01-02T11:03:07.025Z,65.49
2023-01-02T11:04:06.957Z,65.36
2023-01-02T11:05:06.984Z,65.56
2023-01-02T11:06:23.650Z,64.84
2023-01-02T11:07:06.927Z,65.05
2023-01-02T11:08:06.932Z,65.56
2023-01-02T11:09:06.923Z,65.97
2023-01-02T11:10:06.905Z,64.95
2023-01-02T11:11:06.961Z,64.64
2023-01-02T11:12:06.880Z,64.41
2023-01-02T11:13:06.877Z,64.41
2023-01-02T11:14:06.855Z,64.81
2023-01-02T11:15:06.857Z,64.20
2023-01-02T11:16:06.907Z,63.80
2023-01-02T11:17:06.855Z,64.00
2023-01-02T11:18:06.819Z,64.00
2023-01-02T11:19:06.811Z,64.00
2023-01-02T11:20:06.856Z,64.11
2023-01-02T11:21:06.820Z,64.11
2023-01-02T11:22:07.101Z,64.20
2023-01-02T11:23:06.774Z,63.90
2023-01-02T11:24:06.870Z,64.61
2023-01-02T11:25:06.788Z,63.70
2023-01-02T11:26:06.757Z,64.11
2023-01-02T11:27:07.091Z,63.90
2023-01-02T11:28:06.713Z,64.41
2023-01-02T11:29:06.742Z,64.31
2023-01-02T11:30:06.775Z,64.92
2023-01-02T11:31:06.743Z,64.51
2023-01-02T11:32:06.709Z,64.51
2023-01-02T11:33:06.668Z,64.84
2023-01-02T11:34:06.689Z,64.72
2023-01-02T11:35:06.690Z,65.53
2023-01-02T11:36:06.652Z,65.16
2023-01-02T11:37:06.629Z,65.66
2023-01-02T11:38:06.612Z,65.73
2023-01-02T11:39:06.611Z,65.16
2023-01-02T11:40:06.605Z,65.36
2023-01-02T11:41:06.601Z,65.86
2023-01-02T11:42:06.569Z,66.07
2023-01-02T11:43:06.560Z,66.58
2023-01-02T11:44:06.563Z,66.17
2023-01-02T11:45:06.556Z,67.29
2023-01-02T11:46:06.613Z,66.47
2023-01-02T11:47:06.540Z,66.99
2023-01-02T11:48:06.523Z,66.78
2023-01-02T11:49:06.525Z,66.88
2023-01-02T11:50:06.500Z,66.88
2023-01-02T11:51:06.495Z,66.82
2023-01-02T11:52:06.480Z,67.22
2023-01-02T11:53:06.463Z,67.63
2023-01-02T11:54:06.456Z,67.63
2023-01-02T11:55:06.435Z,68.13
2023-01-02T11:56:06.432Z,67.73
2023-01-02T11:57:06.492Z,67.93
2023-01-02T11:58:06.435Z,68.34
2023-01-02T11:59:06.411Z,68.54
2023-01-02T12:00:06.393Z,68.65
2023-01-02T12:01:06.376Z,68.78
2023-01-02T12:02:06.794Z,68.17
2023-01-02T12:03:06.522Z,68.78
2023-01-02T12:04:06.447Z,68.48
2023-01-02T12:05:06.350Z,69.19
2023-01-02T12:06:06.323Z,69.39
2023-01-02T12:07:06.828Z,68.98
2023-01-02T12:08:06.313Z,68.98
2023-01-02T12:09:06.306Z,69.09
2023-01-02T12:10:06.299Z,69.29
2023-01-02T12:11:06.759Z,69.29
2023-01-02T12:12:06.272Z,69.49
2023-01-02T12:13:06.253Z,68.88
2023-01-02T12:14:06.259Z,69.09
2023-01-02T12:15:06.249Z,69.19
2023-01-02T12:16:06.245Z,69.39
2023-01-02T12:17:06.558Z,69.70
2023-01-02T12:18:06.212Z,69.70
2023-01-02T12:19:06.193Z,69.90
2023-01-02T12:20:06.441Z,69.63
2023-01-02T12:21:06.169Z,70.51
2023-01-02T12:22:06.442Z,70.75
2023-01-02T12:23:06.156Z,70.54
2023-01-02T12:24:06.153Z,70.95
2023-01-02T12:25:06.131Z,71.56
2023-01-02T12:26:09.381Z,72.48
2023-01-02T12:27:06.112Z,72.58
2023-01-02T12:28:06.146Z,73.30
2023-01-02T12:29:06.105Z,74.32
2023-01-02T12:30:06.088Z,73.94
2023-01-02T12:31:06.081Z,75.48
2023-01-02T12:32:06.754Z,75.88
2023-01-02T12:33:06.062Z,77.41
2023-01-02T12:34:06.048Z,78.33
2023-01-02T12:35:06.067Z,78.37
2023-01-02T12:36:06.027Z,78.77
2023-01-02T12:37:06.058Z,79.90
2023-01-02T12:38:06.012Z,80.82
2023-01-02T12:39:06.031Z,80.44
2023-01-02T12:40:05.987Z,80.55
2023-01-02T12:41:05.973Z,80.96
2023-01-02T12:42:05.984Z,81.20
2023-01-02T12:43:05.968Z,82.12
2023-01-02T12:44:05.958Z,82.53
2023-01-02T12:45:05.931Z,81.91
2023-01-02T12:46:05.993Z,82.93
2023-01-02T12:47:06.207Z,82.63
2023-01-02T12:48:05.949Z,82.42
2023-01-02T12:49:05.920Z,82.73
2023-01-02T12:50:05.896Z,83.14
2023-01-02T12:51:05.884Z,82.56
2023-01-02T12:52:05.862Z,82.87